createdAt,value
2018-04-28T04:00:28.634Z,8.30
2018-04-28T04:03:09.359Z,8.10
2018-04-28T04:05:44.159Z,8.10
2018-04-28T04:08:17.780Z,7.90
2018-04-28T04:11:07.233Z,7.90
2018-04-28T04:13:42.212Z,8.20
2018-04-28T04:16:22.301Z,8.60
2018-04-28T04:18:51.303Z,8.80
2018-04-28T04:21:39.130Z,8.80
2018-04-28T04:24:08.261Z,8.80
2018-04-28T04:26:51.329Z,8.70
2018-04-28T04:42:59.293Z,8.40
2018-04-28T04:45:33.156Z,8.40
2018-04-28T04:48:12.169Z,8.30
2018-04-28T04:50:50.025Z,8.30
2018-04-28T04:56:49.579Z,8.40
2018-04-28T04:59:36.668Z,8.60
2018-04-28T05:02:12.575Z,8.80
2018-04-28T05:04:52.560Z,8.90
2018-04-28T05:07:41.540Z,9.20
2018-04-28T05:10:30.625Z,9.30
2018-04-28T05:13:04.354Z,9.50
2018-04-28T05:15:41.492Z,9.60
2018-04-28T05:18:22.311Z,10.10
2018-04-28T05:21:01.007Z,10.10
2018-04-28T05:23:47.480Z,10.40
2018-04-28T05:26:22.348Z,10.70
2018-04-28T05:28:59.183Z,11.00
2018-04-28T05:31:35.398Z,11.30
2018-04-28T05:47:45.445Z,13.30
2018-04-28T05:50:20.853Z,13.40
2018-04-28T05:53:01.948Z,13.50
2018-04-28T05:55:36.473Z,13.80
2018-04-28T05:58:13.050Z,14.10
2018-04-28T06:03:54.002Z,14.00
2018-04-28T06:06:33.972Z,13.90
2018-04-28T06:09:12.010Z,14.20
2018-04-28T06:12:02.019Z,14.60
2018-04-28T06:14:35.381Z,15.00
2018-04-28T06:17:10.994Z,15.50
2018-04-28T06:19:51.065Z,15.90
2018-04-28T06:22:19.997Z,16.20
2018-04-28T06:24:49.209Z,16.30
2018-04-28T06:27:17.306Z,16.80
2018-04-28T06:29:46.167Z,17.20
2018-04-28T06:32:14.204Z,17.20
2018-04-28T06:34:42.088Z,17.20
2018-04-28T06:37:10.601Z,17.10
2018-04-28T06:39:39.506Z,17.50
2018-04-28T06:42:08.539Z,17.70
2018-04-28T06:44:37.336Z,17.70
2018-04-28T06:47:05.933Z,17.90
2018-04-28T06:49:37.833Z,18.00
2018-04-28T06:52:06.736Z,18.40
2018-04-28T06:54:36.464Z,18.80
2018-04-28T06:57:05.307Z,18.80
2018-04-28T06:59:33.469Z,19.30
2018-04-28T07:02:01.972Z,20.00
2018-04-28T07:04:30.838Z,21.00
2018-04-28T07:06:58.952Z,21.30
2018-04-28T07:09:28.534Z,22.30
2018-04-28T07:11:56.584Z,22.20
2018-04-28T07:14:24.758Z,22.80
2018-04-28T07:16:52.425Z,22.70
2018-04-28T07:19:20.760Z,23.10
2018-04-28T07:21:48.869Z,23.40
2018-04-28T07:24:17.429Z,23.60
2018-04-28T07:26:45.520Z,23.30
2018-04-28T07:29:13.409Z,23.60
2018-04-28T07:31:41.833Z,23.80
2018-04-28T07:34:10.742Z,23.50
2018-04-28T07:36:38.854Z,23.50
2018-04-28T07:39:07.403Z,23.70
2018-04-28T07:41:35.496Z,24.20
2018-04-28T07:44:03.367Z,25.50
2018-04-28T07:46:31.269Z,25.70
2018-04-28T07:48:59.311Z,26.50
2018-04-28T07:51:27.515Z,27.20
2018-04-28T07:53:56.491Z,27.20
2018-04-28T07:56:24.480Z,27.20
2018-04-28T07:58:53.789Z,27.50
2018-04-28T08:01:21.924Z,28.20
2018-04-28T08:03:49.803Z,28.40
2018-04-28T08:06:17.796Z,28.80
2018-04-28T08:08:46.646Z,29.50
2018-04-28T08:11:15.177Z,29.50
2018-04-28T08:13:44.334Z,30.20
2018-04-28T08:16:13.857Z,30.10
2018-04-28T08:18:42.687Z,29.40
2018-04-28T08:21:11.538Z,29.20
2018-04-28T08:23:40.023Z,29.70
2018-04-28T08:26:08.207Z,30.10
2018-04-28T08:28:37.005Z,30.70
2018-04-28T08:31:05.212Z,30.00
2018-04-28T08:33:34.006Z,31.80
2018-04-28T08:36:02.047Z,31.70
2018-04-28T08:38:31.725Z,32.00
2018-04-28T08:40:59.546Z,32.00
2018-04-28T08:43:27.869Z,31.60
2018-04-28T08:45:56.872Z,32.30
2018-04-28T08:48:24.811Z,33.70
2018-04-28T08:50:53.701Z,33.10
2018-04-28T08:53:21.676Z,33.60
2018-04-28T08:55:50.200Z,33.30
2018-04-28T08:58:19.023Z,33.00
2018-04-28T09:00:57.987Z,33.00
2018-04-28T09:03:26.790Z,33.00
2018-04-28T09:05:55.612Z,32.30
2018-04-28T09:08:24.621Z,32.10
2018-04-28T09:10:54.344Z,32.50
2018-04-28T09:13:23.990Z,32.40
2018-04-28T09:15:52.954Z,33.40
2018-04-28T09:18:21.809Z,33.30
2018-04-28T09:20:50.687Z,33.40
2018-04-28T09:23:19.619Z,33.40
2018-04-28T09:25:48.532Z,33.00
2018-04-28T09:28:17.398Z,32.90
2018-04-28T09:30:47.935Z,32.90
2018-04-28T09:33:16.868Z,32.90
2018-04-28T09:35:45.755Z,33.50
2018-04-28T09:38:14.803Z,33.20
2018-04-28T09:40:44.383Z,33.90
2018-04-28T09:43:13.758Z,33.90
2018-04-28T09:45:43.275Z,34.20
2018-04-28T09:48:12.717Z,34.10
2018-04-28T09:50:42.670Z,33.90
2018-04-28T09:53:12.511Z,33.90
2018-04-28T09:55:41.346Z,33.90
2018-04-28T09:58:10.189Z,33.80
2018-04-28T10:00:57.486Z,33.50
2018-04-28T10:03:31.115Z,33.60
2018-04-28T10:06:00.078Z,34.10
2018-04-28T10:08:29.529Z,34.40
2018-04-28T10:10:58.796Z,33.60
2018-04-28T10:13:27.656Z,34.20
2018-04-28T10:15:57.858Z,35.10
2018-04-28T10:18:26.422Z,35.00
2018-04-28T10:20:55.197Z,35.50
2018-04-28T10:23:24.071Z,35.50
2018-04-28T10:25:52.897Z,35.30
2018-04-28T10:28:21.588Z,34.90
2018-04-28T10:30:50.436Z,34.00
2018-04-28T10:33:20.062Z,33.50
2018-04-28T10:35:48.961Z,34.30
2018-04-28T10:38:17.782Z,34.50
2018-04-28T10:40:46.619Z,34.10
2018-04-28T10:43:15.469Z,33.80
2018-04-28T10:45:44.232Z,33.70
2018-04-28T10:48:13.367Z,34.10
2018-04-28T10:50:42.974Z,33.90
2018-04-28T10:53:12.800Z,33.60
2018-04-28T10:55:42.659Z,33.60
2018-04-28T10:58:11.469Z,33.50
2018-04-28T11:00:40.317Z,33.30
2018-04-28T11:03:09.139Z,33.30
2018-04-28T11:05:42.330Z,32.60
2018-04-28T11:08:11.796Z,32.70
2018-04-28T11:10:41.747Z,32.20
2018-04-28T11:13:11.642Z,32.20
2018-04-28T11:15:40.423Z,32.70
2018-04-28T11:18:09.987Z,32.20
2018-04-28T11:20:39.073Z,31.30
2018-04-28T11:23:08.404Z,31.10
2018-04-28T11:25:37.101Z,30.80
2018-04-28T11:28:05.869Z,31.00
2018-04-28T11:30:34.667Z,31.50
2018-04-28T11:33:03.523Z,31.40
2018-04-28T11:35:32.283Z,31.10
2018-04-28T11:38:01.201Z,30.80
2018-04-28T11:40:29.708Z,31.30
2018-04-28T11:42:58.700Z,31.00
2018-04-28T11:45:27.627Z,30.80
2018-04-28T11:47:56.380Z,31.20
2018-04-28T11:50:25.113Z,31.80
2018-04-28T11:52:54.551Z,32.10
2018-04-28T11:55:23.721Z,31.10
2018-04-28T11:57:52.588Z,31.00
2018-04-28T12:00:22.410Z,30.90
2018-04-28T12:02:52.245Z,31.20
2018-04-28T12:05:21.084Z,31.20
2018-04-28T12:07:50.191Z,31.10
2018-04-28T12:10:20.076Z,31.80
2018-04-28T12:12:48.656Z,31.80
2018-04-28T12:15:17.360Z,31.10
2018-04-28T12:17:46.270Z,30.50
2018-04-28T12:20:15.099Z,30.60
2018-04-28T12:22:43.933Z,30.70
2018-04-28T12:25:12.771Z,30.80
2018-04-28T12:27:42.611Z,29.90
2018-04-28T12:30:11.425Z,29.90
2018-04-28T12:32:40.290Z,29.70
2018-04-28T12:35:09.106Z,30.10
2018-04-28T12:37:37.933Z,29.90
2018-04-28T12:40:07.790Z,29.30
2018-04-28T12:42:36.618Z,29.30
2018-04-28T12:45:05.454Z,28.80
2018-04-28T12:47:34.272Z,28.50
2018-04-28T12:50:03.127Z,28.70
2018-04-28T12:52:31.630Z,28.50
2018-04-28T12:55:01.028Z,28.60
2018-04-28T12:57:29.876Z,28.60
2018-04-28T12:59:59.379Z,28.10
2018-04-28T13:02:28.304Z,27.90
2018-04-28T13:04:57.118Z,27.60
2018-04-28T13:07:25.972Z,27.60
2018-04-28T13:09:55.788Z,28.00
2018-04-28T13:12:25.637Z,28.10
2018-04-28T13:14:54.470Z,28.10
2018-04-28T13:17:24.396Z,28.20
2018-04-28T13:19:54.176Z,28.10
2018-04-28T13:22:22.995Z,28.10
2018-04-28T13:24:51.833Z,27.80
2018-04-28T13:27:20.964Z,27.80
2018-04-28T13:29:49.744Z,27.60
2018-04-28T13:32:18.469Z,27.40
2018-04-28T13:34:48.187Z,27.60
2018-04-28T13:37:17.180Z,27.60
2018-04-28T13:39:46.856Z,27.80
2018-04-28T13:42:15.689Z,27.80
2018-04-28T13:44:45.503Z,27.30
2018-04-28T13:47:15.353Z,27.20
2018-04-28T13:49:44.169Z,27.30
2018-04-28T13:52:13.031Z,27.20
2018-04-28T13:54:41.880Z,27.20
2018-04-28T13:57:11.700Z,27.10
2018-04-28T13:59:40.938Z,27.30
2018-04-28T14:02:10.588Z,27.30
2018-04-28T14:04:39.486Z,27.10
2018-04-28T14:07:09.108Z,26.60
2018-04-28T14:09:38.961Z,26.90
2018-04-28T14:12:07.754Z,26.80
2018-04-28T14:14:36.558Z,27.00
2018-04-28T14:17:05.392Z,26.80
2018-04-28T14:19:35.240Z,26.50
2018-04-28T14:22:04.064Z,26.50
2018-04-28T14:24:32.911Z,26.30
2018-04-28T14:27:01.825Z,26.00
2018-04-28T14:29:30.447Z,25.70
2018-04-28T14:31:59.399Z,25.40
2018-04-28T14:34:28.233Z,25.50
2018-04-28T14:36:57.085Z,25.50
2018-04-28T14:39:25.915Z,25.40
2018-04-28T14:41:55.763Z,25.20
2018-04-28T14:44:24.587Z,25.20
2018-04-28T14:46:53.421Z,25.00
2018-04-28T14:49:22.519Z,25.00
2018-04-28T14:51:52.195Z,25.00
2018-04-28T14:54:20.758Z,25.00
2018-04-28T14:56:49.749Z,25.10
2018-04-28T14:59:19.588Z,25.30
2018-04-28T15:01:48.433Z,25.20
2018-04-28T15:04:18.124Z,25.40
2018-04-28T15:06:48.132Z,25.60
2018-04-28T15:09:17.127Z,25.60
2018-04-28T15:11:46.076Z,25.80
2018-04-28T15:14:15.418Z,25.90
2018-04-28T15:16:44.829Z,25.70
2018-04-28T15:19:14.431Z,25.40
2018-04-28T15:21:44.159Z,25.00
2018-04-28T15:24:13.991Z,24.80
2018-04-28T15:26:42.834Z,24.70
2018-04-28T15:29:11.652Z,24.50
2018-04-28T15:31:41.504Z,23.90
2018-04-28T15:34:10.347Z,23.90
2018-04-28T15:36:39.086Z,23.80
2018-04-28T15:39:08.007Z,23.50
2018-04-28T15:41:36.835Z,23.30
2018-04-28T15:44:05.664Z,23.10
2018-04-28T15:46:34.515Z,23.00
2018-04-28T15:49:04.348Z,22.70
2018-04-28T15:51:33.332Z,22.70
2018-04-28T15:54:02.136Z,22.70
2018-04-28T15:56:30.672Z,22.40
2018-04-28T15:58:59.345Z,22.40
2018-04-28T16:01:27.856Z,22.30
2018-04-28T16:03:56.563Z,22.10
2018-04-28T16:06:25.363Z,22.00
2018-04-28T16:08:54.157Z,22.00
2018-04-28T16:11:22.920Z,21.80
2018-04-28T16:13:52.675Z,21.10
2018-04-28T16:16:21.495Z,21.00
2018-04-28T16:18:50.352Z,20.80
2018-04-28T16:21:19.215Z,20.60
2018-04-28T16:23:48.036Z,20.40
2018-04-28T16:26:16.955Z,20.30
2018-04-28T16:28:45.692Z,20.40
2018-04-28T16:31:14.788Z,20.50
2018-04-28T16:33:43.529Z,20.50
2018-04-28T16:36:12.098Z,20.40
2018-04-28T16:38:40.271Z,20.20
2018-04-28T16:41:09.046Z,20.00
2018-04-28T16:43:37.612Z,20.00
2018-04-28T16:46:06.880Z,20.10
2018-04-28T16:48:36.453Z,20.00
2018-04-28T16:51:05.247Z,20.00
2018-04-28T16:53:33.718Z,20.10
2018-04-28T16:56:02.282Z,20.10
2018-04-28T16:58:30.939Z,20.00
2018-04-28T17:00:59.774Z,19.60
2018-04-28T17:03:28.540Z,19.30
2018-04-28T17:05:57.326Z,19.20
2018-04-28T17:08:26.986Z,18.80
2018-04-28T17:10:55.829Z,18.70
2018-04-28T17:13:24.365Z,18.60
2018-04-28T17:15:53.471Z,18.40
2018-04-28T17:18:22.284Z,18.20
2018-04-28T17:20:52.123Z,17.80
2018-04-28T17:23:20.672Z,17.80
2018-04-28T17:25:50.063Z,17.50
2018-04-28T17:28:18.798Z,17.40
2018-04-28T17:30:47.672Z,17.40
2018-04-28T17:33:17.291Z,17.10
2018-04-28T17:35:46.176Z,17.00
2018-04-28T17:38:15.073Z,16.90
2018-04-28T17:40:43.605Z,16.70
2018-04-28T17:43:12.111Z,16.60
2018-04-28T17:45:41.351Z,16.40
2018-04-28T17:48:10.288Z,16.30
2018-04-28T17:50:40.124Z,16.10
2018-04-28T17:53:10.004Z,16.00
2018-04-28T17:55:39.476Z,16.00
2018-04-28T17:58:07.874Z,15.90
2018-04-28T18:00:36.611Z,15.80
2018-04-28T18:03:08.662Z,15.60
2018-04-28T18:05:37.440Z,15.50
2018-04-28T18:08:06.180Z,15.50
2018-04-28T18:10:35.063Z,15.50
2018-04-28T18:13:03.905Z,15.30
2018-04-28T18:15:32.641Z,15.30
2018-04-28T18:18:02.342Z,15.00
2018-04-28T18:20:32.165Z,15.00
2018-04-28T18:23:02.051Z,14.80
2018-04-28T18:25:30.889Z,14.80
2018-04-28T18:28:00.220Z,14.70
2018-04-28T18:30:28.767Z,14.60
2018-04-28T18:32:57.595Z,14.50
2018-04-28T18:35:26.175Z,14.30
2018-04-28T18:37:55.026Z,14.20
2018-04-28T18:40:23.863Z,14.20
2018-04-28T18:42:52.656Z,14.10
2018-04-28T18:45:21.814Z,14.00
2018-04-28T18:47:50.556Z,14.00
2018-04-28T18:50:19.360Z,13.90
2018-04-28T18:52:48.138Z,13.90
2018-04-28T18:55:16.939Z,13.90
2018-04-28T18:57:47.698Z,13.80
2018-04-28T19:00:16.801Z,13.80
2018-04-28T19:02:45.782Z,13.70
2018-04-28T19:05:14.269Z,13.60
2018-04-28T19:07:44.171Z,13.50
2018-04-28T19:10:13.835Z,13.40
2018-04-28T19:12:42.684Z,13.40
2018-04-28T19:15:12.497Z,13.20
2018-04-28T19:17:42.369Z,13.20
2018-04-28T19:20:11.219Z,13.10
2018-04-28T19:22:40.016Z,13.10
2018-04-28T19:25:09.982Z,12.90
2018-04-28T19:27:43.022Z,12.90
2018-04-28T19:30:14.615Z,12.80
2018-04-28T19:32:43.561Z,12.70
2018-04-28T19:35:12.393Z,12.70
2018-04-28T19:37:41.283Z,12.60
2018-04-28T19:40:10.034Z,12.60
2018-04-28T19:42:38.847Z,12.50
2018-04-28T19:45:07.820Z,12.50
2018-04-28T19:47:36.613Z,12.40
2018-04-28T19:50:05.161Z,12.40
2018-04-28T19:52:34.001Z,12.30
2018-04-28T19:55:03.632Z,12.20
2018-04-28T19:57:32.995Z,12.20
2018-04-28T20:00:01.768Z,12.10
2018-04-28T20:02:30.409Z,12.10
2018-04-28T20:04:59.131Z,12.10
2018-04-28T20:07:28.203Z,12.00
2018-04-28T20:09:57.077Z,11.90
2018-04-28T20:12:25.842Z,11.90
2018-04-28T20:14:54.779Z,11.90
2018-04-28T20:17:23.491Z,11.90
2018-04-28T20:19:52.297Z,11.90
2018-04-28T20:22:33.012Z,11.80
2018-04-28T20:25:12.958Z,11.80
2018-04-28T20:27:41.783Z,11.80
2018-04-28T20:30:10.700Z,11.70
2018-04-28T20:32:39.418Z,11.70
2018-04-28T20:35:07.937Z,11.70
2018-04-28T20:37:37.222Z,11.60
2018-04-28T20:40:06.261Z,11.60
2018-04-28T20:42:35.969Z,11.50
2018-04-28T20:45:05.605Z,11.50
2018-04-28T20:47:34.644Z,11.50
2018-04-28T20:50:03.395Z,11.50
2018-04-28T20:52:32.205Z,11.40
2018-04-28T20:55:00.947Z,11.40
2018-04-28T20:57:30.741Z,11.30
2018-04-28T21:00:00.774Z,11.30
2018-04-28T21:02:31.101Z,11.30
2018-04-28T21:05:00.555Z,11.30
2018-04-28T21:07:29.370Z,11.30
2018-04-28T21:09:58.274Z,11.30
2018-04-28T21:12:27.802Z,11.40
2018-04-28T21:14:57.720Z,11.30
2018-04-28T21:17:26.408Z,11.30
2018-04-28T21:19:55.583Z,11.20
2018-04-28T21:22:25.158Z,11.20
2018-04-28T21:24:53.998Z,11.20
2018-04-28T21:27:24.041Z,11.10
2018-04-28T21:29:52.905Z,11.10
2018-04-28T21:32:21.916Z,11.10
2018-04-28T21:34:50.636Z,11.10
2018-04-28T21:37:19.472Z,11.10
2018-04-28T21:39:48.824Z,11.00
2018-04-28T21:42:17.844Z,11.00
2018-04-28T21:44:47.785Z,10.90
2018-04-28T21:47:17.083Z,10.90
2018-04-28T21:49:46.601Z,10.90
2018-04-28T21:52:15.429Z,10.90
2018-04-28T21:54:44.256Z,10.90
2018-04-28T21:57:12.991Z,10.90
2018-04-28T21:59:41.784Z,10.90
2018-04-28T22:02:10.317Z,10.90
2018-04-28T22:04:39.786Z,10.90
2018-04-28T22:07:08.947Z,10.90
2018-04-28T22:09:37.608Z,10.90
2018-04-28T22:12:06.772Z,10.90
2018-04-28T22:14:35.392Z,10.90
2018-04-28T22:17:04.514Z,10.80
2018-04-28T22:19:34.070Z,10.70
2018-04-28T22:22:02.576Z,10.70
2018-04-28T22:24:31.701Z,10.70
2018-04-28T22:27:01.227Z,10.80
2018-04-28T22:29:29.776Z,10.80
2018-04-28T22:31:58.907Z,10.70
2018-04-28T22:34:27.573Z,10.70
2018-04-28T22:36:57.028Z,10.60
2018-04-28T22:39:26.128Z,10.60
2018-04-28T22:41:55.534Z,10.60
2018-04-28T22:44:24.233Z,10.60
2018-04-28T22:46:53.367Z,10.60
2018-04-28T22:49:22.927Z,10.50
2018-04-28T22:51:51.483Z,10.50
2018-04-28T22:54:20.628Z,10.50
2018-04-28T22:56:49.320Z,10.50
2018-04-28T22:59:18.457Z,10.50
